X  SluitMETAR luchtvaart weer gegevens      EBBR Brussels

Temperatuur

12°C Temperatuur

8°C Dauwpunt

77% Vochtigheid



Wind

16 KM/U

10 MPH

 4 M/S

 9 KTS



190°
Het Zuiden
Huidig weer

Helder Helder
Luchtdruk 1004.92 (hPa) - 29.68 (in)
Zicht 6.2 (mi) - 10 (km)
Vliegveld
Vliegveld code EBBR

Locatie Brussels 10 (km)

Metar:
EBBR 182320Z 19009KT CAVOK 12/08 Q1005 NOSIG

Tijd: 19-10-2019 01:20